createdAt,value
2018-03-20T00:00:17.480Z,0
2018-03-20T00:00:57.840Z,0
2018-03-20T00:01:38.234Z,0
2018-03-20T00:02:18.593Z,0
2018-03-20T00:02:59.034Z,0
2018-03-20T00:03:39.432Z,0
2018-03-20T00:04:19.786Z,0
2018-03-20T00:05:00.154Z,0
2018-03-20T00:05:40.596Z,0
2018-03-20T00:06:20.953Z,0
2018-03-20T00:07:01.365Z,0
2018-03-20T00:07:41.831Z,0
2018-03-20T00:08:22.218Z,0
2018-03-20T00:09:02.559Z,0
2018-03-20T00:09:42.966Z,0
2018-03-20T00:10:23.374Z,0
2018-03-20T00:11:03.755Z,0
2018-03-20T00:11:44.156Z,0
2018-03-20T00:12:24.540Z,0
2018-03-20T00:13:04.946Z,0
2018-03-20T00:13:45.346Z,0
2018-03-20T00:14:25.776Z,0
2018-03-20T00:15:06.172Z,0
2018-03-20T00:15:46.503Z,0
2018-03-20T00:16:26.885Z,0
2018-03-20T00:17:07.278Z,0
2018-03-20T00:17:47.737Z,0
2018-03-20T00:18:28.091Z,0
2018-03-20T00:19:08.460Z,0
2018-03-20T00:19:48.925Z,0
2018-03-20T00:20:29.390Z,0
2018-03-20T00:21:09.741Z,0
2018-03-20T00:21:50.088Z,0
2018-03-20T00:22:30.544Z,0
2018-03-20T00:23:10.937Z,0
2018-03-20T00:23:51.297Z,0
2018-03-20T00:24:31.692Z,0
2018-03-20T00:25:12.042Z,0
2018-03-20T00:25:52.406Z,0
2018-03-20T00:26:32.771Z,0
2018-03-20T00:27:13.219Z,0
2018-03-20T00:27:53.552Z,0
2018-03-20T00:28:33.943Z,0
2018-03-20T00:29:14.325Z,0
2018-03-20T00:29:54.711Z,0
2018-03-20T00:30:35.165Z,0
2018-03-20T00:31:15.455Z,0
2018-03-20T00:31:55.869Z,0
2018-03-20T00:32:36.231Z,0
2018-03-20T00:33:16.642Z,0
2018-03-20T00:33:57.006Z,0
2018-03-20T00:34:37.391Z,0
2018-03-20T00:35:17.821Z,0
2018-03-20T00:35:58.190Z,0
2018-03-20T00:36:38.614Z,0
2018-03-20T00:37:18.990Z,0
2018-03-20T00:37:59.355Z,0
2018-03-20T00:38:39.772Z,0
2018-03-20T00:39:20.205Z,0
2018-03-20T00:40:00.561Z,0
2018-03-20T00:40:41.118Z,0
2018-03-20T00:41:21.477Z,0
2018-03-20T00:42:01.871Z,0
2018-03-20T00:42:42.266Z,0
2018-03-20T00:43:22.610Z,0
2018-03-20T00:44:03.025Z,0
2018-03-20T00:44:43.442Z,0
2018-03-20T00:45:23.800Z,0
2018-03-20T00:46:04.251Z,0
2018-03-20T00:46:44.651Z,0
2018-03-20T00:47:25.039Z,0
2018-03-20T00:48:05.473Z,0
2018-03-20T00:48:45.810Z,0
2018-03-20T00:49:26.250Z,0
2018-03-20T00:50:06.572Z,0
2018-03-20T00:50:47.001Z,0
2018-03-20T00:51:27.379Z,0
2018-03-20T00:52:07.780Z,0
2018-03-20T00:52:48.185Z,0
2018-03-20T00:53:28.576Z,0
2018-03-20T00:54:08.935Z,0
2018-03-20T00:54:49.308Z,0
2018-03-20T00:55:29.707Z,0
2018-03-20T00:56:10.093Z,0
2018-03-20T00:56:50.464Z,0
2018-03-20T00:57:30.847Z,0
2018-03-20T00:58:11.214Z,0
2018-03-20T00:58:51.666Z,0
2018-03-20T00:59:32.124Z,0
2018-03-20T01:00:12.494Z,0
2018-03-20T01:00:52.908Z,0
2018-03-20T01:01:33.321Z,0
2018-03-20T01:02:13.703Z,0
2018-03-20T01:02:54.137Z,0
2018-03-20T01:03:34.483Z,0
2018-03-20T01:04:14.887Z,0
2018-03-20T01:04:55.309Z,0
2018-03-20T01:05:35.797Z,0
2018-03-20T01:06:16.101Z,0
2018-03-20T01:06:56.522Z,0
2018-03-20T01:07:36.874Z,0
2018-03-20T01:08:17.335Z,0
2018-03-20T01:08:57.706Z,0
2018-03-20T01:09:38.093Z,0
2018-03-20T01:10:18.433Z,0
2018-03-20T01:10:58.925Z,0
2018-03-20T01:11:39.305Z,0
2018-03-20T01:12:24.252Z,0
2018-03-20T01:13:06.340Z,0
2018-03-20T01:13:46.779Z,0
2018-03-20T01:14:27.885Z,0
2018-03-20T01:15:08.050Z,0
2018-03-20T01:15:50.398Z,0
2018-03-20T01:16:32.217Z,0
2018-03-20T01:17:13.352Z,0
2018-03-20T01:17:54.267Z,0
2018-03-20T01:18:35.465Z,0
2018-03-20T01:19:15.940Z,0
2018-03-20T01:19:56.158Z,0
2018-03-20T01:20:36.537Z,0
2018-03-20T01:21:16.993Z,0
2018-03-20T01:21:57.537Z,0
2018-03-20T01:22:37.901Z,0
2018-03-20T01:23:18.253Z,0
2018-03-20T01:23:58.716Z,0
2018-03-20T01:24:39.059Z,0
2018-03-20T01:25:19.482Z,0
2018-03-20T01:25:59.848Z,0
2018-03-20T01:26:43.254Z,0
2018-03-20T01:27:23.653Z,0
2018-03-20T01:28:03.998Z,0
2018-03-20T01:28:44.393Z,0
2018-03-20T01:29:24.796Z,0
2018-03-20T01:30:05.236Z,0
2018-03-20T01:30:45.707Z,0
2018-03-20T01:31:26.125Z,0
2018-03-20T01:32:06.486Z,0
2018-03-20T01:32:46.936Z,0
2018-03-20T01:33:27.234Z,0
2018-03-20T01:34:07.752Z,0
2018-03-20T01:34:48.497Z,0
2018-03-20T01:35:28.921Z,0
2018-03-20T01:36:09.383Z,0
2018-03-20T01:36:49.827Z,0
2018-03-20T01:37:30.110Z,0
2018-03-20T01:38:10.680Z,0
2018-03-20T01:38:51.026Z,0
2018-03-20T01:39:31.447Z,0
2018-03-20T01:40:11.805Z,0
2018-03-20T01:40:52.250Z,0
2018-03-20T01:41:32.625Z,0
2018-03-20T01:42:13.071Z,0
2018-03-20T01:42:53.411Z,0
2018-03-20T01:43:33.840Z,0
2018-03-20T01:44:14.349Z,0
2018-03-20T01:44:54.702Z,0
2018-03-20T01:45:35.171Z,0
2018-03-20T01:46:15.712Z,0
2018-03-20T01:46:56.060Z,0
2018-03-20T01:47:36.475Z,0
2018-03-20T01:48:16.839Z,0
2018-03-20T01:48:57.214Z,0
2018-03-20T01:49:37.676Z,0
2018-03-20T01:50:17.976Z,0
2018-03-20T01:50:58.434Z,0
2018-03-20T01:51:38.830Z,0
2018-03-20T01:52:19.141Z,0
2018-03-20T01:52:59.602Z,0
2018-03-20T01:53:40.023Z,0
2018-03-20T01:54:20.350Z,0
2018-03-20T01:55:00.740Z,0
2018-03-20T01:55:41.120Z,0
2018-03-20T01:56:21.463Z,0
2018-03-20T01:57:02.290Z,0
2018-03-20T01:57:42.658Z,0
2018-03-20T01:58:23.054Z,0
2018-03-20T01:59:03.447Z,0
2018-03-20T01:59:43.753Z,0
2018-03-20T02:00:24.250Z,0
2018-03-20T02:01:04.671Z,0
2018-03-20T02:01:45.176Z,0
2018-03-20T02:02:25.699Z,0
2018-03-20T02:03:05.930Z,0
2018-03-20T02:03:46.363Z,0
2018-03-20T02:04:26.735Z,0
2018-03-20T02:05:07.148Z,0
2018-03-20T02:05:47.519Z,0
2018-03-20T02:06:27.923Z,0
2018-03-20T02:07:08.301Z,0
2018-03-20T02:07:48.744Z,0
2018-03-20T02:08:29.210Z,0
2018-03-20T02:09:09.624Z,0
2018-03-20T02:09:49.994Z,0
2018-03-20T02:10:30.498Z,0
2018-03-20T02:11:10.815Z,0
2018-03-20T02:11:51.184Z,0
2018-03-20T02:12:31.546Z,0
2018-03-20T02:13:11.953Z,0
2018-03-20T02:13:52.409Z,0
2018-03-20T02:14:32.778Z,0
2018-03-20T02:15:13.306Z,0
2018-03-20T02:15:53.660Z,0
2018-03-20T02:16:34.011Z,0
2018-03-20T02:17:14.476Z,0
2018-03-20T02:17:54.994Z,0
2018-03-20T02:18:35.337Z,0
2018-03-20T02:19:15.798Z,0
2018-03-20T02:19:56.169Z,0
2018-03-20T02:20:36.715Z,0
2018-03-20T02:21:17.255Z,0
2018-03-20T02:21:57.621Z,0
2018-03-20T02:22:38.178Z,0
2018-03-20T02:23:18.610Z,0
2018-03-20T02:23:59.307Z,0
2018-03-20T02:24:41.042Z,0
2018-03-20T02:25:21.350Z,0
2018-03-20T02:26:01.757Z,0
2018-03-20T02:26:42.087Z,0
2018-03-20T02:27:22.561Z,0
2018-03-20T02:28:02.925Z,0
2018-03-20T02:28:43.341Z,0
2018-03-20T02:29:23.748Z,0
2018-03-20T02:30:04.182Z,0
2018-03-20T02:30:46.516Z,0
2018-03-20T02:31:26.673Z,0
2018-03-20T02:32:07.355Z,0
2018-03-20T02:32:47.607Z,0
2018-03-20T02:33:28.205Z,0
2018-03-20T02:41:57.196Z,0
2018-03-20T02:42:37.588Z,0
2018-03-20T02:43:17.981Z,0
2018-03-20T02:43:58.410Z,0
2018-03-20T02:44:38.794Z,0
2018-03-20T02:45:19.193Z,0
2018-03-20T02:45:59.589Z,0
2018-03-20T02:46:39.981Z,0
2018-03-20T02:47:20.337Z,0
2018-03-20T02:48:00.717Z,0
2018-03-20T02:48:41.124Z,0
2018-03-20T02:49:21.505Z,0
2018-03-20T02:50:01.916Z,0
2018-03-20T02:50:42.302Z,0
2018-03-20T02:51:22.730Z,0
2018-03-20T02:52:03.157Z,0
2018-03-20T02:52:43.498Z,0
2018-03-20T02:53:23.918Z,0
2018-03-20T02:54:04.311Z,0
2018-03-20T02:54:44.737Z,0
2018-03-20T02:55:25.111Z,0
2018-03-20T02:56:05.528Z,0
2018-03-20T02:56:45.964Z,0
2018-03-20T02:57:26.440Z,0
2018-03-20T02:58:06.844Z,0
2018-03-20T02:58:47.192Z,0
2018-03-20T02:59:27.611Z,0
2018-03-20T03:00:08.032Z,0
2018-03-20T03:00:48.387Z,0
2018-03-20T03:01:28.797Z,0
2018-03-20T03:02:09.205Z,0
2018-03-20T03:02:49.574Z,0
2018-03-20T03:03:29.977Z,0
2018-03-20T03:04:10.372Z,0
2018-03-20T03:04:50.864Z,0
2018-03-20T03:05:31.218Z,0
2018-03-20T03:06:11.574Z,0
2018-03-20T03:06:51.977Z,0
2018-03-20T03:07:32.343Z,0
2018-03-20T03:08:12.752Z,0
2018-03-20T03:08:53.130Z,0
2018-03-20T03:09:33.566Z,0
2018-03-20T03:10:13.941Z,0
2018-03-20T03:10:54.318Z,0
2018-03-20T03:11:34.748Z,0
2018-03-20T03:12:15.122Z,0
2018-03-20T03:12:55.510Z,0
2018-03-20T03:13:35.909Z,0
2018-03-20T03:14:16.273Z,0
2018-03-20T03:14:56.677Z,0
2018-03-20T03:15:37.107Z,0
2018-03-20T03:16:17.492Z,0
2018-03-20T03:16:57.918Z,0
2018-03-20T03:17:38.268Z,0
2018-03-20T03:18:18.698Z,0
2018-03-20T03:18:59.035Z,0
2018-03-20T03:19:39.429Z,0
2018-03-20T03:20:19.838Z,0
2018-03-20T03:21:00.257Z,0
2018-03-20T03:21:40.574Z,0
2018-03-20T03:22:21.018Z,0
2018-03-20T03:23:01.444Z,0
2018-03-20T03:23:41.794Z,0
2018-03-20T04:46:59.895Z,0
2018-03-20T04:47:40.258Z,0
2018-03-20T04:48:20.650Z,0
2018-03-20T04:49:01.105Z,0
2018-03-20T04:49:41.493Z,0
2018-03-20T04:50:21.845Z,0
2018-03-20T04:51:02.254Z,0
2018-03-20T04:51:42.687Z,0
2018-03-20T04:52:23.065Z,0
2018-03-20T04:53:03.483Z,0
2018-03-20T04:53:43.906Z,0
2018-03-20T04:54:24.270Z,0
2018-03-20T04:55:04.658Z,0
2018-03-20T04:55:45.079Z,0
2018-03-20T04:56:25.494Z,0
2018-03-20T04:57:05.963Z,0
2018-03-20T04:57:46.397Z,0
2018-03-20T04:58:26.782Z,0
2018-03-20T04:59:07.164Z,0
2018-03-20T04:59:47.599Z,0
2018-03-20T05:00:27.978Z,0
2018-03-20T05:01:08.396Z,0
2018-03-20T05:01:48.801Z,0
2018-03-20T05:02:29.230Z,0
2018-03-20T05:03:09.560Z,0
2018-03-20T05:03:50.059Z,0
2018-03-20T05:04:30.390Z,0
2018-03-20T05:05:10.917Z,0
2018-03-20T05:05:51.338Z,0
2018-03-20T05:06:31.719Z,0
2018-03-20T05:07:12.156Z,0
2018-03-20T05:07:52.542Z,0
2018-03-20T05:08:32.958Z,0
2018-03-20T05:09:13.358Z,0
2018-03-20T05:09:53.811Z,0
2018-03-20T05:10:34.151Z,0
2018-03-20T05:11:14.638Z,0
2018-03-20T05:11:55.026Z,0
2018-03-20T05:12:35.394Z,0
2018-03-20T05:13:15.818Z,0
2018-03-20T05:13:56.266Z,0
2018-03-20T05:14:36.621Z,0
2018-03-20T05:15:17.002Z,0
2018-03-20T05:15:57.436Z,0
2018-03-20T05:16:37.825Z,0
2018-03-20T05:17:18.256Z,0
2018-03-20T05:17:58.640Z,0
2018-03-20T05:18:39.029Z,0
2018-03-20T05:19:19.443Z,0
2018-03-20T05:19:59.825Z,0
2018-03-20T05:20:40.228Z,0
2018-03-20T05:21:20.624Z,0
2018-03-20T05:22:01.050Z,4
2018-03-20T05:22:41.447Z,0
2018-03-20T05:23:21.842Z,0
2018-03-20T05:24:02.268Z,0
2018-03-20T05:24:42.738Z,0
2018-03-20T05:25:23.096Z,4
2018-03-20T05:26:03.489Z,4
2018-03-20T05:26:43.891Z,0
2018-03-20T05:27:24.291Z,4
2018-03-20T05:28:04.687Z,4
2018-03-20T05:28:45.078Z,0
2018-03-20T05:29:25.483Z,4
2018-03-20T05:30:05.860Z,4
2018-03-20T05:30:46.258Z,4
2018-03-20T05:31:26.690Z,4
2018-03-20T05:32:07.083Z,4
2018-03-20T05:32:47.517Z,8
2018-03-20T05:33:27.901Z,4
2018-03-20T05:34:08.272Z,8
2018-03-20T05:34:48.651Z,8
2018-03-20T05:35:29.066Z,8
2018-03-20T05:36:09.464Z,8
2018-03-20T05:36:49.839Z,8
2018-03-20T05:37:30.271Z,8
2018-03-20T05:38:10.616Z,8
2018-03-20T05:38:51.142Z,8
2018-03-20T05:39:31.503Z,8
2018-03-20T05:40:11.931Z,8
2018-03-20T05:40:52.301Z,8
2018-03-20T05:41:32.718Z,12
2018-03-20T05:42:13.083Z,12
2018-03-20T05:42:53.490Z,12
2018-03-20T05:43:33.878Z,12
2018-03-20T05:44:14.256Z,12
2018-03-20T05:44:54.672Z,16
2018-03-20T05:45:35.067Z,12
2018-03-20T05:46:15.501Z,16
2018-03-20T05:46:55.904Z,16
2018-03-20T05:47:36.301Z,20
2018-03-20T05:48:16.650Z,24
2018-03-20T05:48:57.091Z,28
2018-03-20T05:49:37.480Z,28
2018-03-20T05:50:17.850Z,32
2018-03-20T05:50:58.237Z,36
2018-03-20T05:51:38.662Z,36
2018-03-20T05:52:19.067Z,36
2018-03-20T05:52:59.424Z,36
2018-03-20T05:53:57.215Z,36
2018-03-20T05:54:37.625Z,36
2018-03-20T05:55:18.028Z,36
2018-03-20T05:55:58.506Z,32
2018-03-20T05:56:38.865Z,32
2018-03-20T05:57:19.281Z,36
2018-03-20T05:57:59.671Z,36
2018-03-20T05:58:40.153Z,40
2018-03-20T05:59:20.441Z,44
2018-03-20T06:00:00.823Z,48
2018-03-20T06:00:41.200Z,48
2018-03-20T06:01:21.588Z,48
2018-03-20T06:02:01.946Z,48
2018-03-20T06:02:42.353Z,48
2018-03-20T06:03:22.816Z,44
2018-03-20T06:04:03.222Z,44
2018-03-20T06:04:43.597Z,40
2018-03-20T06:05:23.990Z,44
2018-03-20T06:06:04.485Z,36
2018-03-20T06:06:44.859Z,36
2018-03-20T06:07:25.293Z,40
2018-03-20T06:08:05.660Z,40
2018-03-20T06:08:46.106Z,44
2018-03-20T06:09:26.510Z,44
2018-03-20T06:10:06.895Z,48
2018-03-20T06:10:47.299Z,48
2018-03-20T06:11:27.696Z,52
2018-03-20T06:12:08.097Z,56
2018-03-20T06:12:48.492Z,52
2018-03-20T06:13:28.942Z,56
2018-03-20T06:14:09.371Z,56
2018-03-20T06:14:49.753Z,64
2018-03-20T06:15:30.162Z,64
2018-03-20T06:16:10.616Z,68
2018-03-20T06:16:51.045Z,68
2018-03-20T06:17:31.542Z,72
2018-03-20T06:18:11.888Z,76
2018-03-20T06:18:52.357Z,80
2018-03-20T06:19:32.766Z,80
2018-03-20T06:20:13.273Z,80
2018-03-20T06:20:53.658Z,80
2018-03-20T06:21:34.054Z,80
2018-03-20T06:22:14.437Z,84
2018-03-20T06:22:54.812Z,92
2018-03-20T06:23:35.227Z,96
2018-03-20T06:24:15.701Z,104
2018-03-20T06:24:56.010Z,112
2018-03-20T06:25:36.427Z,116
2018-03-20T06:26:16.823Z,120
2018-03-20T06:26:57.265Z,132
2018-03-20T06:27:37.906Z,136
2018-03-20T06:28:19.465Z,136
2018-03-20T06:28:59.694Z,136
2018-03-20T06:29:40.265Z,136
2018-03-20T06:30:20.593Z,144
2018-03-20T06:31:00.922Z,140
2018-03-20T06:31:41.332Z,136
2018-03-20T06:32:21.769Z,132
2018-03-20T06:33:02.139Z,132
2018-03-20T06:33:42.500Z,136
2018-03-20T06:34:22.913Z,132
2018-03-20T06:35:03.348Z,144
2018-03-20T06:35:43.746Z,156
2018-03-20T06:36:24.144Z,172
2018-03-20T06:37:04.507Z,184
2018-03-20T06:37:44.943Z,172
2018-03-20T06:38:25.304Z,168
2018-03-20T06:39:05.939Z,176
2018-03-20T06:39:46.405Z,192
2018-03-20T06:40:26.794Z,204
2018-03-20T06:41:07.219Z,224
2018-03-20T06:41:47.643Z,228
2018-03-20T06:42:28.026Z,228
2018-03-20T06:43:08.428Z,212
2018-03-20T06:43:48.819Z,208
2018-03-20T06:44:29.206Z,216
2018-03-20T06:45:09.624Z,236
2018-03-20T06:45:50.045Z,272
2018-03-20T06:46:30.452Z,304
2018-03-20T06:47:10.840Z,328
2018-03-20T06:47:51.334Z,332
2018-03-20T06:48:31.682Z,328
2018-03-20T06:49:12.062Z,308
2018-03-20T06:49:52.475Z,288
2018-03-20T06:50:32.848Z,300
2018-03-20T06:51:13.311Z,304
2018-03-20T06:51:53.821Z,284
2018-03-20T06:52:34.280Z,276
2018-03-20T06:53:15.300Z,296
2018-03-20T06:53:55.671Z,304
2018-03-20T06:54:36.416Z,320
2018-03-20T06:55:16.861Z,300
2018-03-20T06:55:57.450Z,304
2018-03-20T06:56:37.856Z,332
2018-03-20T06:57:18.326Z,364
2018-03-20T06:57:59.030Z,356
2018-03-20T06:58:40.082Z,352
2018-03-20T06:59:21.012Z,344
2018-03-20T07:00:01.001Z,312
2018-03-20T07:00:41.401Z,276
2018-03-20T07:01:22.170Z,264
2018-03-20T07:02:03.788Z,240
2018-03-20T07:02:43.772Z,236
2018-03-20T07:03:24.178Z,228
2018-03-20T07:04:04.610Z,232
2018-03-20T07:04:45.003Z,240
2018-03-20T07:05:25.528Z,276
2018-03-20T07:06:05.900Z,308
2018-03-20T07:06:46.267Z,340
2018-03-20T07:07:26.736Z,368
2018-03-20T07:08:07.116Z,412
2018-03-20T07:08:47.524Z,444
2018-03-20T07:09:27.972Z,488
2018-03-20T07:10:08.342Z,516
2018-03-20T07:10:48.721Z,568
2018-03-20T07:11:29.049Z,612
2018-03-20T07:12:09.534Z,660
2018-03-20T07:12:49.893Z,684
2018-03-20T07:13:30.240Z,712
2018-03-20T07:14:10.706Z,660
2018-03-20T07:14:51.152Z,588
2018-03-20T07:15:31.569Z,528
2018-03-20T07:16:12.000Z,488
2018-03-20T07:16:52.445Z,460
2018-03-20T07:17:32.853Z,456
2018-03-20T07:18:13.270Z,460
2018-03-20T07:18:53.652Z,480
2018-03-20T07:19:33.988Z,476
2018-03-20T07:20:14.399Z,476
2018-03-20T07:20:54.835Z,492
2018-03-20T07:21:35.266Z,520
2018-03-20T07:22:15.746Z,492
2018-03-20T07:22:56.758Z,488
2018-03-20T07:23:36.949Z,476
2018-03-20T07:24:17.366Z,512
2018-03-20T07:24:57.763Z,512
2018-03-20T07:25:38.168Z,528
2018-03-20T07:26:18.625Z,528
2018-03-20T07:26:58.981Z,544
2018-03-20T07:27:39.390Z,568
2018-03-20T07:28:19.786Z,660
2018-03-20T07:29:00.179Z,696
2018-03-20T07:29:40.817Z,748
2018-03-20T07:30:21.256Z,756
2018-03-20T07:31:01.599Z,680
2018-03-20T07:31:41.982Z,612
2018-03-20T07:32:22.426Z,556
2018-03-20T07:33:02.797Z,512
2018-03-20T07:33:43.188Z,564
2018-03-20T07:34:23.738Z,652
2018-03-20T07:35:04.257Z,628
2018-03-20T07:35:44.597Z,564
2018-03-20T07:36:25.063Z,572
2018-03-20T07:37:05.446Z,604
2018-03-20T07:37:45.864Z,624
2018-03-20T07:38:26.252Z,632
2018-03-20T07:39:06.634Z,688
2018-03-20T07:39:47.072Z,748
2018-03-20T07:40:27.462Z,812
2018-03-20T07:41:07.959Z,852
2018-03-20T07:41:48.421Z,948
2018-03-20T07:42:28.836Z,1068
2018-03-20T07:43:09.194Z,1080
2018-03-20T07:43:49.677Z,1076
2018-03-20T07:46:19.951Z,1308
2018-03-20T07:47:00.976Z,1300
2018-03-20T07:47:41.381Z,1484
2018-03-20T07:48:21.811Z,1572
2018-03-20T07:49:02.691Z,1444
2018-03-20T07:49:43.551Z,1568
2018-03-20T07:50:24.962Z,1832
2018-03-20T07:51:06.003Z,1672
2018-03-20T07:51:46.749Z,1588
2018-03-20T07:52:26.991Z,1452
2018-03-20T07:53:07.585Z,1456
2018-03-20T07:53:48.587Z,1460
2018-03-20T07:54:29.752Z,1628
2018-03-20T07:55:11.027Z,1628
2018-03-20T07:55:51.503Z,1560
2018-03-20T07:56:31.965Z,1644
2018-03-20T07:57:13.060Z,1752
2018-03-20T07:57:54.697Z,1808
2018-03-20T07:58:34.852Z,1860
2018-03-20T07:59:16.017Z,2032
2018-03-20T07:59:56.469Z,2232
2018-03-20T08:00:36.865Z,2228
2018-03-20T08:01:17.613Z,2612
2018-03-20T08:01:59.184Z,2504
2018-03-20T08:02:41.111Z,2372
2018-03-20T08:03:21.839Z,1916
2018-03-20T08:04:03.105Z,1624
2018-03-20T08:04:43.556Z,1464
2018-03-20T08:05:24.281Z,1444
2018-03-20T08:06:04.961Z,1308
2018-03-20T08:06:46.903Z,1244
2018-03-20T08:07:27.835Z,1180
2018-03-20T08:08:08.234Z,1224
2018-03-20T08:08:48.913Z,1344
2018-03-20T08:09:29.488Z,1512
2018-03-20T08:10:10.119Z,1576
2018-03-20T08:10:50.652Z,1608
2018-03-20T08:11:32.431Z,1588
2018-03-20T08:12:13.487Z,1628
2018-03-20T08:12:53.866Z,1672
2018-03-20T08:13:34.299Z,1724
2018-03-20T08:14:14.766Z,1832
2018-03-20T08:14:58.048Z,1936
2018-03-20T08:17:17.037Z,2920
2018-03-20T08:17:57.437Z,3336
2018-03-20T08:18:37.769Z,3780
2018-03-20T08:19:18.649Z,4436
2018-03-20T08:19:59.661Z,4652
2018-03-20T08:20:41.034Z,3148
2018-03-20T08:21:21.556Z,2776
2018-03-20T08:22:03.074Z,2500
2018-03-20T08:22:44.063Z,2692
2018-03-20T08:23:24.153Z,2840
2018-03-20T08:24:04.534Z,2852
2018-03-20T08:24:45.274Z,2376
2018-03-20T08:25:25.421Z,2092
2018-03-20T08:26:06.234Z,2552
2018-03-20T08:26:47.190Z,2568
2018-03-20T08:27:27.988Z,2160
2018-03-20T08:28:09.247Z,2100
2018-03-20T08:28:49.613Z,1820
2018-03-20T08:29:30.037Z,1648
2018-03-20T08:30:11.549Z,1540
2018-03-20T08:30:52.135Z,1676
2018-03-20T08:31:33.053Z,1620
2018-03-20T08:32:13.436Z,1492
2018-03-20T08:32:53.846Z,1536
2018-03-20T08:33:34.664Z,1556
2018-03-20T08:34:15.180Z,1408
2018-03-20T08:34:56.213Z,1168
2018-03-20T08:35:38.092Z,1080
2018-03-20T08:36:18.686Z,996
2018-03-20T08:39:21.504Z,1348
2018-03-20T08:40:02.366Z,1212
2018-03-20T08:40:43.198Z,1092
2018-03-20T08:41:23.740Z,1108
2018-03-20T08:42:04.239Z,1228
2018-03-20T08:42:45.706Z,1300
2018-03-20T08:43:27.215Z,1304
2018-03-20T08:44:09.120Z,1256
2018-03-20T08:44:49.252Z,1424
2018-03-20T08:45:31.003Z,1372
2018-03-20T08:46:12.016Z,1400
2018-03-20T08:46:53.065Z,1448
2018-03-20T08:47:33.717Z,1952
2018-03-20T08:48:14.452Z,1984
2018-03-20T08:48:56.278Z,1636
2018-03-20T08:49:36.750Z,1804
2018-03-20T08:50:18.536Z,1604
2018-03-20T08:50:59.635Z,1496
2018-03-20T08:51:42.180Z,1116
2018-03-20T08:52:22.965Z,1076
2018-03-20T08:53:03.858Z,940
2018-03-20T08:53:45.649Z,844
2018-03-20T08:54:27.534Z,896
2018-03-20T08:55:08.586Z,852
2018-03-20T08:55:49.817Z,952
2018-03-20T08:56:29.812Z,880
2018-03-20T08:57:10.521Z,848
2018-03-20T08:57:51.189Z,808
2018-03-20T08:58:31.605Z,884
2018-03-20T08:59:12.111Z,988
2018-03-20T08:59:52.769Z,836
2018-03-20T09:00:34.477Z,884
2018-03-20T09:01:14.949Z,828
2018-03-20T09:01:55.370Z,688
2018-03-20T09:02:36.638Z,724
2018-03-20T09:03:17.304Z,740
2018-03-20T09:03:57.456Z,704
2018-03-20T09:04:38.244Z,788
2018-03-20T09:05:18.877Z,820
2018-03-20T09:06:01.496Z,856
2018-03-20T09:06:42.168Z,784
2018-03-20T09:07:24.609Z,880
2018-03-20T09:10:46.261Z,1248
2018-03-20T09:11:28.738Z,1244
2018-03-20T09:12:09.554Z,1260
2018-03-20T09:12:49.955Z,1212
2018-03-20T09:13:31.294Z,1364
2018-03-20T09:14:11.590Z,1364
2018-03-20T09:14:51.965Z,1380
2018-03-20T09:15:32.398Z,1328
2018-03-20T09:16:12.872Z,1316
2018-03-20T09:16:53.300Z,1440
2018-03-20T09:17:33.750Z,1472
2018-03-20T09:18:14.346Z,1392
2018-03-20T09:18:54.798Z,1612
2018-03-20T09:19:35.395Z,1760
2018-03-20T09:20:16.550Z,1736
2018-03-20T09:20:56.933Z,1620
2018-03-20T09:21:37.280Z,1524
2018-03-20T09:22:17.760Z,1544
2018-03-20T09:22:58.727Z,1736
2018-03-20T09:23:39.290Z,1832
2018-03-20T09:24:20.069Z,2104
2018-03-20T09:25:00.896Z,2256
2018-03-20T09:25:41.121Z,2256
2018-03-20T09:26:21.557Z,2248
2018-03-20T09:27:02.104Z,2628
2018-03-20T09:27:42.437Z,2732
2018-03-20T09:28:22.786Z,3052
2018-03-20T09:29:03.490Z,2756
2018-03-20T09:29:43.777Z,2564
2018-03-20T09:30:24.231Z,2396
2018-03-20T09:31:06.688Z,2428
2018-03-20T09:31:50.316Z,2596
2018-03-20T09:32:30.922Z,2856
2018-03-20T09:33:11.285Z,2868
2018-03-20T09:33:51.753Z,2680
2018-03-20T09:34:32.240Z,2636
2018-03-20T09:35:12.716Z,2492
2018-03-20T09:35:53.095Z,2312
2018-03-20T09:36:33.673Z,2240
2018-03-20T09:37:14.035Z,2088
2018-03-20T09:37:54.597Z,2064
2018-03-20T09:38:35.497Z,1988
2018-03-20T09:39:15.648Z,1972
2018-03-20T09:39:56.236Z,2012
2018-03-20T09:40:36.716Z,2108
2018-03-20T09:41:17.217Z,2260
2018-03-20T09:41:57.694Z,2248
2018-03-20T09:42:38.554Z,2136
2018-03-20T09:43:19.449Z,2456
2018-03-20T09:43:59.717Z,2992
2018-03-20T09:44:40.172Z,3000
2018-03-20T09:45:21.637Z,2920
2018-03-20T09:46:01.966Z,3468
2018-03-20T09:46:42.477Z,3424
2018-03-20T09:47:22.965Z,3664
2018-03-20T09:48:03.580Z,3340
2018-03-20T09:48:44.018Z,2880
2018-03-20T09:49:24.374Z,2216
2018-03-20T09:50:04.902Z,2644
2018-03-20T09:50:46.231Z,2872
2018-03-20T09:51:26.567Z,2944
2018-03-20T09:52:06.824Z,2900
2018-03-20T09:52:47.437Z,2716
2018-03-20T09:53:28.304Z,3272
2018-03-20T09:54:08.913Z,3312
2018-03-20T09:54:50.009Z,2876
2018-03-20T09:55:30.784Z,2640
2018-03-20T09:56:10.995Z,3028
2018-03-20T09:56:51.754Z,2936
2018-03-20T09:57:32.169Z,2956
2018-03-20T09:58:12.658Z,3096
2018-03-20T09:58:53.294Z,2948
2018-03-20T09:59:33.975Z,2708
2018-03-20T10:00:14.473Z,2624
2018-03-20T10:00:54.941Z,2780
2018-03-20T10:01:35.524Z,2852
2018-03-20T10:02:16.859Z,2724
2018-03-20T10:02:58.273Z,2316
2018-03-20T10:03:38.763Z,1928
2018-03-20T10:04:19.177Z,1772
2018-03-20T10:04:59.869Z,1860
2018-03-20T10:05:40.351Z,2152
2018-03-20T10:06:21.134Z,1988
2018-03-20T10:07:01.634Z,2048
2018-03-20T10:07:42.271Z,2416
2018-03-20T10:08:24.318Z,2524
2018-03-20T10:09:04.833Z,1916
2018-03-20T10:09:46.997Z,1976
2018-03-20T10:47:44.458Z,2196
2018-03-20T10:48:24.878Z,2168
2018-03-20T10:49:14.967Z,2264
2018-03-20T10:57:41.159Z,2620
2018-03-20T10:58:23.172Z,2252
2018-03-20T10:59:03.821Z,2156
2018-03-20T10:59:44.525Z,2208
2018-03-20T11:00:24.870Z,2256
2018-03-20T11:01:05.299Z,1964
2018-03-20T11:01:46.451Z,1808
2018-03-20T11:02:26.882Z,1764
2018-03-20T11:03:08.867Z,2044
2018-03-20T11:03:55.057Z,2076
2018-03-20T11:04:37.142Z,2220
2018-03-20T11:05:18.496Z,2372
2018-03-20T11:06:02.159Z,2680
2018-03-20T11:06:43.920Z,2496
2018-03-20T11:07:26.159Z,2008
2018-03-20T11:08:08.995Z,1724
2018-03-20T11:08:52.227Z,1276
2018-03-20T11:12:56.289Z,1608
2018-03-20T11:13:36.615Z,1640
2018-03-20T11:14:17.095Z,1668
2018-03-20T11:14:57.986Z,1660
2018-03-20T11:15:38.423Z,1624
2018-03-20T11:16:18.793Z,1592
2018-03-20T11:16:59.266Z,1556
2018-03-20T11:17:39.645Z,1524
2018-03-20T11:18:20.148Z,1532
2018-03-20T11:19:00.457Z,1528
2018-03-20T11:19:41.830Z,1516
2018-03-20T11:20:21.507Z,1592
2018-03-20T11:21:02.007Z,1576
2018-03-20T11:21:42.392Z,1576
2018-03-20T11:22:22.734Z,1596
2018-03-20T11:23:03.177Z,1612
2018-03-20T11:23:43.562Z,1580
2018-03-20T11:24:24.076Z,1556
2018-03-20T11:25:04.474Z,1544
2018-03-20T11:25:44.918Z,1536
2018-03-20T11:26:25.402Z,1552
2018-03-20T11:27:05.748Z,1608
2018-03-20T11:27:46.164Z,1656
2018-03-20T11:28:26.561Z,1732
2018-03-20T11:29:07.008Z,1816
2018-03-20T11:29:47.476Z,1988
2018-03-20T11:30:27.932Z,1976
2018-03-20T11:31:08.360Z,1984
2018-03-20T11:31:48.774Z,2092
2018-03-20T11:41:48.132Z,1484
2018-03-20T11:43:50.327Z,1384
2018-03-20T11:44:30.768Z,1372
2018-03-20T11:45:11.246Z,1368
2018-03-20T11:45:53.752Z,1360
2018-03-20T11:46:34.197Z,1356
2018-03-20T11:47:15.298Z,1344
2018-03-20T11:47:55.334Z,1348
2018-03-20T11:48:35.800Z,1344
2018-03-20T11:49:16.287Z,1340
2018-03-20T11:49:57.326Z,1340
2018-03-20T11:50:37.971Z,1340
2018-03-20T11:51:18.742Z,1332
2018-03-20T11:51:59.860Z,1328
2018-03-20T11:52:41.991Z,1328
2018-03-20T11:53:22.811Z,1328
2018-03-20T11:54:08.272Z,1328
2018-03-20T11:54:51.086Z,1336
2018-03-20T11:55:34.918Z,1344
2018-03-20T12:00:24.645Z,1312
2018-03-20T12:01:04.949Z,1308
2018-03-20T12:01:45.518Z,1312
2018-03-20T12:02:26.801Z,1316
2018-03-20T12:03:07.189Z,1324
2018-03-20T12:03:47.901Z,1328
2018-03-20T12:04:28.396Z,1336
2018-03-20T12:05:09.273Z,1332
2018-03-20T12:05:49.790Z,1236
2018-03-20T12:06:30.815Z,1244
2018-03-20T12:07:12.369Z,884
2018-03-20T12:07:52.924Z,1324
2018-03-20T12:08:37.606Z,1336
2018-03-20T12:09:18.689Z,1328
2018-03-20T12:09:59.394Z,1312
2018-03-20T12:10:40.227Z,1320
2018-03-20T12:11:21.207Z,792
2018-03-20T12:12:01.891Z,820
2018-03-20T12:12:42.827Z,1004
2018-03-20T12:13:23.293Z,1364
2018-03-20T12:14:03.891Z,1364